LIRA Airport Information

Runway Information
Runway 15 Length 7242 ft width 154 ft
Elevation 341 ft Threshold 0 ft Heading 153
Runway 33 Length 7242 ft Width 154 ft
Elevation 427 ft Threshold 0 ft Heading 333
Airport Frequencies
Type ARR Name ROMA ARR Frequency 119.2 MHZ
Type CLD Name CLNC DEL Frequency 119.4 MHZ
Type DIR Name ROMA DIREC Frequency 119.2 MHZ
Type GND Name GND Frequency 121.75 MHZ
Type TWR Name TWR Frequency 120.5 MHZ
Airport Navaids
Type NDB Name Ciampino Frequency 412 KHZ
Type VOR-DME Name Roma Frequency 110800 KHZ
Airport Weather Information & NOTAM
ADDS - METARS form results

(0936 UTC 24 June 2021)
Data provider http://aviationweather.gov/metar/data/
 
METAR text: LIRA 240920Z 20009KT 170V240 CAVOK 30/18 Q1018
Conditions at: LIRA (CIAMPINO(IT-AFB/, IT) observed 0920 UTC 24 June 2021
Temperature: 30.0°C (86°F)
Dewpoint: 18.0°C (64°F) [RH = 49%]
Pressure (altimeter): 30.06 inches Hg (1018.0 mb)
Winds: from the SSW (200 degrees) at 10 MPH (9 knots; 4.6 m/s)
Visibility: 6 or more miles (10+ km)
Ceiling: ceiling and visibility are OK
Clouds: unknown
Weather: no significant weather observed at this time

METAR text: LIRA 240850Z 21009KT 9999 FEW040 30/18 Q1017
Conditions at: LIRA (CIAMPINO(IT-AFB/, IT) observed 0850 UTC 24 June 2021
Temperature: 30.0°C (86°F)
Dewpoint: 18.0°C (64°F) [RH = 49%]
Pressure (altimeter): 30.03 inches Hg (1017.0 mb)
Winds: from the SSW (210 degrees) at 10 MPH (9 knots; 4.6 m/s)
Visibility: 6 or more miles (10+ km)
Ceiling: at least 12,000 feet AGL
Clouds: few clouds at 4000 feet AGL
Weather: no significant weather observed at this time

Forecast for: LIRA (CIAMPINO(IT-AFB/, IT)
Text: TAF LIRA 240500Z 2406/2506 VRB05KT 9999 SCT040
Forecast period: 0600 to 1000 UTC 24 June 2021
Forecast type: FROM: standard forecast or significant change
Winds: variable direction winds at 6 MPH (5 knots; 2.6 m/s)
Visibility: 6 or more miles (10+ km)
Ceiling: at least 12,000 feet AGL
Clouds: scattered clouds at 4000 feet AGL
Weather: no significant weather forecast for this period
Text: TEMPO 2409/2412 RA
Forecast period: 0900 to 1200 UTC 24 June 2021
Forecast type: TEMPORARY: The following changes expected for less than half the time period
Visibility: missing
Ceiling: unknown
Clouds: missing
Weather: RA  (moderate rain)
Text: BECMG 2410/2412 22010KT
Forecast period: 1000 UTC 24 June 2021 to 0600 UTC 25 June 2021
Forecast type: BECOMING: Conditions expected to become as follows by 1200 UTC 24 June 2021
Winds: from the SW (220 degrees) at 12 MPH (10 knots; 5.1 m/s)
Visibility: 6 or more miles (10+ km)
Ceiling: at least 12,000 feet AGL
Clouds: scattered clouds at 4000 feet AGL
Weather: no significant weather forecast for this period